sensor_id;sensor_type;location;lat;lon;timestamp;temperature;humidity
5956;DHT22;3004;48.080;11.600;2022-07-06T00:01:37;14.40;99.90
5956;DHT22;3004;48.080;11.600;2022-07-06T00:04:04;14.40;99.90
5956;DHT22;3004;48.080;11.600;2022-07-06T00:06:33;14.50;99.90
5956;DHT22;3004;48.080;11.600;2022-07-06T00:09:00;14.50;99.90
5956;DHT22;3004;48.080;11.600;2022-07-06T00:11:27;14.60;99.90
5956;DHT22;3004;48.080;11.600;2022-07-06T00:13:54;14.60;99.90
5956;DHT22;3004;48.080;11.600;2022-07-06T00:16:22;14.50;99.90
5956;DHT22;3004;48.080;11.600;2022-07-06T00:18:50;14.50;99.90
5956;DHT22;3004;48.080;11.600;2022-07-06T00:21:17;14.60;99.90
5956;DHT22;3004;48.080;11.600;2022-07-06T00:23:46;14.60;99.90
5956;DHT22;3004;48.080;11.600;2022-07-06T00:26:13;14.70;99.90
5956;DHT22;3004;48.080;11.600;2022-07-06T00:28:40;14.60;99.90
5956;DHT22;3004;48.080;11.600;2022-07-06T00:31:07;14.60;99.90
5956;DHT22;3004;48.080;11.600;2022-07-06T00:33:34;14.50;99.90
5956;DHT22;3004;48.080;11.600;2022-07-06T00:36:01;14.40;99.90
5956;DHT22;3004;48.080;11.600;2022-07-06T00:38:28;14.40;99.90
5956;DHT22;3004;48.080;11.600;2022-07-06T00:40:57;14.30;99.90
5956;DHT22;3004;48.080;11.600;2022-07-06T00:43:24;14.30;99.90
5956;DHT22;3004;48.080;11.600;2022-07-06T00:45:50;14.30;99.90
5956;DHT22;3004;48.080;11.600;2022-07-06T00:48:20;14.40;99.90
5956;DHT22;3004;48.080;11.600;2022-07-06T00:50:49;14.50;99.90
5956;DHT22;3004;48.080;11.600;2022-07-06T00:53:17;14.50;99.90
5956;DHT22;3004;48.080;11.600;2022-07-06T00:55:44;14.50;99.90
5956;DHT22;3004;48.080;11.600;2022-07-06T00:58:13;14.40;99.90
5956;DHT22;3004;48.080;11.600;2022-07-06T01:00:40;14.50;99.90
5956;DHT22;3004;48.080;11.600;2022-07-06T01:03:10;14.50;99.90
5956;DHT22;3004;48.080;11.600;2022-07-06T01:05:37;14.50;99.90
5956;DHT22;3004;48.080;11.600;2022-07-06T01:08:04;14.50;99.90
5956;DHT22;3004;48.080;11.600;2022-07-06T01:10:33;14.50;99.90
5956;DHT22;3004;48.080;11.600;2022-07-06T01:13:00;14.50;99.90
5956;DHT22;3004;48.080;11.600;2022-07-06T01:15:29;14.50;99.90
5956;DHT22;3004;48.080;11.600;2022-07-06T01:17:56;14.60;99.90
5956;DHT22;3004;48.080;11.600;2022-07-06T01:20:25;14.60;99.90
5956;DHT22;3004;48.080;11.600;2022-07-06T01:22:54;14.70;99.90
5956;DHT22;3004;48.080;11.600;2022-07-06T01:25:22;14.70;99.90
5956;DHT22;3004;48.080;11.600;2022-07-06T01:27:49;14.70;99.90
5956;DHT22;3004;48.080;11.600;2022-07-06T01:30:18;14.70;99.90
5956;DHT22;3004;48.080;11.600;2022-07-06T01:32:45;14.60;99.90
5956;DHT22;3004;48.080;11.600;2022-07-06T01:35:14;14.50;99.90
5956;DHT22;3004;48.080;11.600;2022-07-06T01:37:43;14.50;99.90
5956;DHT22;3004;48.080;11.600;2022-07-06T01:40:11;14.40;99.90
5956;DHT22;3004;48.080;11.600;2022-07-06T01:42:39;14.40;99.90
5956;DHT22;3004;48.080;11.600;2022-07-06T01:45:07;14.30;99.90
5956;DHT22;3004;48.080;11.600;2022-07-06T01:47:35;14.30;99.90
5956;DHT22;3004;48.080;11.600;2022-07-06T01:50:06;14.30;99.90
5956;DHT22;3004;48.080;11.600;2022-07-06T01:52:34;14.20;99.90
5956;DHT22;3004;48.080;11.600;2022-07-06T01:55:06;14.20;99.90
5956;DHT22;3004;48.080;11.600;2022-07-06T01:57:34;14.20;99.90
5956;DHT22;3004;48.080;11.600;2022-07-06T02:00:00;14.20;99.90
5956;DHT22;3004;48.080;11.600;2022-07-06T02:02:27;14.20;99.90
5956;DHT22;3004;48.080;11.600;2022-07-06T02:04:54;14.10;99.90
5956;DHT22;3004;48.080;11.600;2022-07-06T02:07:21;14.10;99.90
5956;DHT22;3004;48.080;11.600;2022-07-06T02:09:48;14.10;99.90
5956;DHT22;3004;48.080;11.600;2022-07-06T02:12:17;14.10;99.90
5956;DHT22;3004;48.080;11.600;2022-07-06T02:14:44;14.00;99.90
5956;DHT22;3004;48.080;11.600;2022-07-06T02:17:11;14.10;99.90
5956;DHT22;3004;48.080;11.600;2022-07-06T02:19:38;14.10;99.90
5956;DHT22;3004;48.080;11.600;2022-07-06T02:22:05;14.10;99.90
5956;DHT22;3004;48.080;11.600;2022-07-06T02:24:31;14.10;99.90
5956;DHT22;3004;48.080;11.600;2022-07-06T02:26:59;14.10;99.90
5956;DHT22;3004;48.080;11.600;2022-07-06T02:29:27;14.10;99.90
5956;DHT22;3004;48.080;11.600;2022-07-06T02:31:54;14.20;99.90
5956;DHT22;3004;48.080;11.600;2022-07-06T02:34:21;14.10;99.90
5956;DHT22;3004;48.080;11.600;2022-07-06T02:36:48;14.20;99.90
5956;DHT22;3004;48.080;11.600;2022-07-06T02:39:15;14.20;99.90
5956;DHT22;3004;48.080;11.600;2022-07-06T02:41:43;14.20;99.90
5956;DHT22;3004;48.080;11.600;2022-07-06T02:44:10;14.10;99.90
5956;DHT22;3004;48.080;11.600;2022-07-06T02:46:38;14.10;99.90
5956;DHT22;3004;48.080;11.600;2022-07-06T02:49:05;14.10;99.90
5956;DHT22;3004;48.080;11.600;2022-07-06T02:51:35;14.00;99.90
5956;DHT22;3004;48.080;11.600;2022-07-06T02:54:05;14.00;99.90
5956;DHT22;3004;48.080;11.600;2022-07-06T02:56:32;14.00;99.90
5956;DHT22;3004;48.080;11.600;2022-07-06T02:58:59;13.90;99.90
5956;DHT22;3004;48.080;11.600;2022-07-06T03:01:26;13.90;99.90
5956;DHT22;3004;48.080;11.600;2022-07-06T03:03:54;13.80;99.90
5956;DHT22;3004;48.080;11.600;2022-07-06T03:06:21;13.80;99.90
5956;DHT22;3004;48.080;11.600;2022-07-06T03:08:48;13.80;99.90
5956;DHT22;3004;48.080;11.600;2022-07-06T03:11:15;13.70;99.90
5956;DHT22;3004;48.080;11.600;2022-07-06T03:13:42;13.80;99.90
5956;DHT22;3004;48.080;11.600;2022-07-06T03:16:09;13.80;99.90
5956;DHT22;3004;48.080;11.600;2022-07-06T03:18:36;13.80;99.90
5956;DHT22;3004;48.080;11.600;2022-07-06T03:21:04;13.70;99.90
5956;DHT22;3004;48.080;11.600;2022-07-06T03:23:31;13.70;99.90
5956;DHT22;3004;48.080;11.600;2022-07-06T03:25:58;13.60;99.90
5956;DHT22;3004;48.080;11.600;2022-07-06T03:28:25;13.50;99.90
5956;DHT22;3004;48.080;11.600;2022-07-06T03:30:52;13.50;99.90
5956;DHT22;3004;48.080;11.600;2022-07-06T03:33:19;13.50;99.90
5956;DHT22;3004;48.080;11.600;2022-07-06T03:35:47;13.50;99.90
5956;DHT22;3004;48.080;11.600;2022-07-06T03:38:15;13.50;99.90
5956;DHT22;3004;48.080;11.600;2022-07-06T03:40:45;13.40;99.90
5956;DHT22;3004;48.080;11.600;2022-07-06T03:43:13;13.40;99.90
5956;DHT22;3004;48.080;11.600;2022-07-06T03:45:40;13.50;99.90
5956;DHT22;3004;48.080;11.600;2022-07-06T03:48:07;13.50;99.90
5956;DHT22;3004;48.080;11.600;2022-07-06T03:50:37;13.50;99.90
5956;DHT22;3004;48.080;11.600;2022-07-06T03:53:07;13.50;99.90
5956;DHT22;3004;48.080;11.600;2022-07-06T03:55:36;13.50;99.90
5956;DHT22;3004;48.080;11.600;2022-07-06T03:58:03;13.60;99.90
5956;DHT22;3004;48.080;11.600;2022-07-06T04:00:30;13.60;99.90
5956;DHT22;3004;48.080;11.600;2022-07-06T04:02:57;13.50;99.90
5956;DHT22;3004;48.080;11.600;2022-07-06T04:05:25;13.50;99.90
5956;DHT22;3004;48.080;11.600;2022-07-06T04:07:52;13.50;99.90
5956;DHT22;3004;48.080;11.600;2022-07-06T04:10:20;13.50;99.90
5956;DHT22;3004;48.080;11.600;2022-07-06T04:12:50;13.50;99.90
5956;DHT22;3004;48.080;11.600;2022-07-06T04:15:22;13.60;99.90
5956;DHT22;3004;48.080;11.600;2022-07-06T04:17:49;13.60;99.90
5956;DHT22;3004;48.080;11.600;2022-07-06T04:20:20;13.70;99.90
5956;DHT22;3004;48.080;11.600;2022-07-06T04:22:48;13.70;99.90
5956;DHT22;3004;48.080;11.600;2022-07-06T04:25:15;13.70;99.90
5956;DHT22;3004;48.080;11.600;2022-07-06T04:27:42;13.80;99.90
5956;DHT22;3004;48.080;11.600;2022-07-06T04:30:12;13.80;99.90
5956;DHT22;3004;48.080;11.600;2022-07-06T04:32:39;13.80;99.90
5956;DHT22;3004;48.080;11.600;2022-07-06T04:35:07;13.90;99.90
5956;DHT22;3004;48.080;11.600;2022-07-06T04:37:34;14.00;99.90
5956;DHT22;3004;48.080;11.600;2022-07-06T04:40:01;14.00;99.90
5956;DHT22;3004;48.080;11.600;2022-07-06T04:42:27;14.10;99.90
5956;DHT22;3004;48.080;11.600;2022-07-06T04:44:54;14.20;99.90
5956;DHT22;3004;48.080;11.600;2022-07-06T04:47:23;14.30;99.90
5956;DHT22;3004;48.080;11.600;2022-07-06T04:49:50;14.40;99.90
5956;DHT22;3004;48.080;11.600;2022-07-06T04:52:20;14.50;99.90
5956;DHT22;3004;48.080;11.600;2022-07-06T04:54:47;14.60;99.90
5956;DHT22;3004;48.080;11.600;2022-07-06T04:57:14;14.70;99.90
5956;DHT22;3004;48.080;11.600;2022-07-06T04:59:41;14.70;99.90
5956;DHT22;3004;48.080;11.600;2022-07-06T05:02:07;14.80;99.90
5956;DHT22;3004;48.080;11.600;2022-07-06T05:04:36;14.90;99.90
5956;DHT22;3004;48.080;11.600;2022-07-06T05:07:03;14.90;99.90
5956;DHT22;3004;48.080;11.600;2022-07-06T05:09:30;14.90;99.90
5956;DHT22;3004;48.080;11.600;2022-07-06T05:11:57;15.00;99.90
5956;DHT22;3004;48.080;11.600;2022-07-06T05:14:24;15.10;99.90
5956;DHT22;3004;48.080;11.600;2022-07-06T05:16:53;15.20;99.90
5956;DHT22;3004;48.080;11.600;2022-07-06T05:19:50;15.40;99.90
5956;DHT22;3004;48.080;11.600;2022-07-06T05:22:20;15.60;99.90
5956;DHT22;3004;48.080;11.600;2022-07-06T05:24:47;15.80;99.90
5956;DHT22;3004;48.080;11.600;2022-07-06T05:27:16;15.90;99.90
5956;DHT22;3004;48.080;11.600;2022-07-06T05:29:42;16.00;99.90
5956;DHT22;3004;48.080;11.600;2022-07-06T05:32:10;16.10;99.90
5956;DHT22;3004;48.080;11.600;2022-07-06T05:34:37;16.40;99.90
5956;DHT22;3004;48.080;11.600;2022-07-06T05:37:07;16.50;99.90
5956;DHT22;3004;48.080;11.600;2022-07-06T05:39:34;16.60;99.90
5956;DHT22;3004;48.080;11.600;2022-07-06T05:42:01;16.70;99.90
5956;DHT22;3004;48.080;11.600;2022-07-06T05:55:13;16.80;99.90
5956;DHT22;3004;48.080;11.600;2022-07-06T05:57:40;17.40;99.90
5956;DHT22;3004;48.080;11.600;2022-07-06T06:00:09;17.50;99.90
5956;DHT22;3004;48.080;11.600;2022-07-06T06:02:42;17.50;99.90
5956;DHT22;3004;48.080;11.600;2022-07-06T06:05:10;17.50;99.90
5956;DHT22;3004;48.080;11.600;2022-07-06T06:07:38;17.60;99.90
5956;DHT22;3004;48.080;11.600;2022-07-06T06:10:07;17.60;99.90
5956;DHT22;3004;48.080;11.600;2022-07-06T06:12:36;17.60;99.90
5956;DHT22;3004;48.080;11.600;2022-07-06T06:15:04;17.70;99.90
5956;DHT22;3004;48.080;11.600;2022-07-06T06:17:32;17.70;99.90
5956;DHT22;3004;48.080;11.600;2022-07-06T06:20:00;17.80;99.90
5956;DHT22;3004;48.080;11.600;2022-07-06T06:22:28;17.80;99.90
5956;DHT22;3004;48.080;11.600;2022-07-06T06:24:56;17.90;99.90
5956;DHT22;3004;48.080;11.600;2022-07-06T06:27:23;17.90;99.90
5956;DHT22;3004;48.080;11.600;2022-07-06T06:29:51;17.90;99.90
5956;DHT22;3004;48.080;11.600;2022-07-06T06:32:18;18.00;99.90
5956;DHT22;3004;48.080;11.600;2022-07-06T06:34:45;18.00;99.90
5956;DHT22;3004;48.080;11.600;2022-07-06T06:37:12;18.00;99.90
5956;DHT22;3004;48.080;11.600;2022-07-06T06:39:39;18.00;99.90
5956;DHT22;3004;48.080;11.600;2022-07-06T06:42:07;18.10;99.90
5956;DHT22;3004;48.080;11.600;2022-07-06T06:44:34;18.10;99.90
5956;DHT22;3004;48.080;11.600;2022-07-06T06:47:03;18.20;99.90
5956;DHT22;3004;48.080;11.600;2022-07-06T06:49:30;18.20;99.90
5956;DHT22;3004;48.080;11.600;2022-07-06T06:51:57;18.30;99.90
5956;DHT22;3004;48.080;11.600;2022-07-06T06:54:24;18.30;99.90
5956;DHT22;3004;48.080;11.600;2022-07-06T06:56:51;18.40;99.90
5956;DHT22;3004;48.080;11.600;2022-07-06T06:59:26;18.40;99.90
5956;DHT22;3004;48.080;11.600;2022-07-06T07:01:53;18.40;99.90
5956;DHT22;3004;48.080;11.600;2022-07-06T07:04:22;18.40;99.90
5956;DHT22;3004;48.080;11.600;2022-07-06T07:06:49;18.60;99.90
5956;DHT22;3004;48.080;11.600;2022-07-06T07:09:16;18.60;99.90
5956;DHT22;3004;48.080;11.600;2022-07-06T07:11:43;18.60;99.90
5956;DHT22;3004;48.080;11.600;2022-07-06T07:14:13;18.70;99.90
5956;DHT22;3004;48.080;11.600;2022-07-06T07:16:41;18.70;99.90
5956;DHT22;3004;48.080;11.600;2022-07-06T07:19:08;18.70;99.90
5956;DHT22;3004;48.080;11.600;2022-07-06T07:21:37;18.70;99.90
5956;DHT22;3004;48.080;11.600;2022-07-06T07:24:04;18.80;99.90
5956;DHT22;3004;48.080;11.600;2022-07-06T07:26:33;18.90;99.90
5956;DHT22;3004;48.080;11.600;2022-07-06T07:29:01;18.90;99.90
5956;DHT22;3004;48.080;11.600;2022-07-06T07:31:28;18.90;99.90
5956;DHT22;3004;48.080;11.600;2022-07-06T07:33:55;19.00;99.90
5956;DHT22;3004;48.080;11.600;2022-07-06T07:36:24;19.00;99.90
5956;DHT22;3004;48.080;11.600;2022-07-06T07:38:52;19.10;99.90
5956;DHT22;3004;48.080;11.600;2022-07-06T07:41:19;19.30;99.90
5956;DHT22;3004;48.080;11.600;2022-07-06T07:43:46;19.30;99.90
5956;DHT22;3004;48.080;11.600;2022-07-06T07:46:13;19.20;99.90
5956;DHT22;3004;48.080;11.600;2022-07-06T07:48:41;19.20;99.90
5956;DHT22;3004;48.080;11.600;2022-07-06T07:51:08;19.20;99.90
5956;DHT22;3004;48.080;11.600;2022-07-06T07:53:37;19.30;99.90
5956;DHT22;3004;48.080;11.600;2022-07-06T07:56:06;19.30;99.90
5956;DHT22;3004;48.080;11.600;2022-07-06T07:58:33;19.30;99.90
5956;DHT22;3004;48.080;11.600;2022-07-06T08:01:00;19.40;99.90
5956;DHT22;3004;48.080;11.600;2022-07-06T08:03:27;19.50;99.90
5956;DHT22;3004;48.080;11.600;2022-07-06T08:05:54;19.60;99.90
5956;DHT22;3004;48.080;11.600;2022-07-06T08:08:21;19.70;99.90
5956;DHT22;3004;48.080;11.600;2022-07-06T08:10:48;19.70;99.90
5956;DHT22;3004;48.080;11.600;2022-07-06T08:13:16;19.80;99.90
5956;DHT22;3004;48.080;11.600;2022-07-06T08:15:43;19.80;99.90
5956;DHT22;3004;48.080;11.600;2022-07-06T08:18:10;19.90;99.90
5956;DHT22;3004;48.080;11.600;2022-07-06T08:20:37;20.00;99.90
5956;DHT22;3004;48.080;11.600;2022-07-06T08:23:04;20.00;99.90
5956;DHT22;3004;48.080;11.600;2022-07-06T08:25:31;20.20;99.90
5956;DHT22;3004;48.080;11.600;2022-07-06T08:27:58;20.20;99.90
5956;DHT22;3004;48.080;11.600;2022-07-06T08:30:27;20.30;99.90
5956;DHT22;3004;48.080;11.600;2022-07-06T08:32:56;20.30;99.90
5956;DHT22;3004;48.080;11.600;2022-07-06T08:35:47;20.30;99.90
5956;DHT22;3004;48.080;11.600;2022-07-06T08:38:14;20.20;99.90
5956;DHT22;3004;48.080;11.600;2022-07-06T08:40:43;20.20;99.90
5956;DHT22;3004;48.080;11.600;2022-07-06T08:43:13;20.30;99.90
5956;DHT22;3004;48.080;11.600;2022-07-06T08:45:41;20.40;99.90
5956;DHT22;3004;48.080;11.600;2022-07-06T08:48:11;20.50;99.90
5956;DHT22;3004;48.080;11.600;2022-07-06T08:50:38;20.60;99.90
5956;DHT22;3004;48.080;11.600;2022-07-06T08:53:07;20.50;99.90
5956;DHT22;3004;48.080;11.600;2022-07-06T08:55:35;20.70;99.90
5956;DHT22;3004;48.080;11.600;2022-07-06T08:58:02;20.90;99.90
5956;DHT22;3004;48.080;11.600;2022-07-06T09:00:38;20.90;99.90
5956;DHT22;3004;48.080;11.600;2022-07-06T09:03:11;20.70;99.90
5956;DHT22;3004;48.080;11.600;2022-07-06T09:05:39;20.70;99.90
5956;DHT22;3004;48.080;11.600;2022-07-06T09:08:07;20.90;99.90
5956;DHT22;3004;48.080;11.600;2022-07-06T09:10:34;20.80;99.90
5956;DHT22;3004;48.080;11.600;2022-07-06T09:13:05;20.70;99.90
5956;DHT22;3004;48.080;11.600;2022-07-06T09:15:33;20.70;99.90
5956;DHT22;3004;48.080;11.600;2022-07-06T09:18:01;20.70;99.90
5956;DHT22;3004;48.080;11.600;2022-07-06T09:20:29;20.80;99.90
5956;DHT22;3004;48.080;11.600;2022-07-06T09:23:01;20.90;99.90
5956;DHT22;3004;48.080;11.600;2022-07-06T09:25:28;20.90;99.90
5956;DHT22;3004;48.080;11.600;2022-07-06T09:27:57;21.10;99.90
5956;DHT22;3004;48.080;11.600;2022-07-06T09:30:25;21.20;99.90
5956;DHT22;3004;48.080;11.600;2022-07-06T09:32:54;21.20;99.90
5956;DHT22;3004;48.080;11.600;2022-07-06T09:35:24;21.30;99.90
5956;DHT22;3004;48.080;11.600;2022-07-06T09:38:04;21.20;99.90
5956;DHT22;3004;48.080;11.600;2022-07-06T09:40:33;21.30;99.90
5956;DHT22;3004;48.080;11.600;2022-07-06T09:43:12;21.20;99.90
5956;DHT22;3004;48.080;11.600;2022-07-06T09:45:41;21.30;99.90
5956;DHT22;3004;48.080;11.600;2022-07-06T09:48:10;21.20;99.90
5956;DHT22;3004;48.080;11.600;2022-07-06T09:50:46;21.20;99.90
5956;DHT22;3004;48.080;11.600;2022-07-06T09:53:15;21.40;99.90
5956;DHT22;3004;48.080;11.600;2022-07-06T09:55:45;21.40;99.90
5956;DHT22;3004;48.080;11.600;2022-07-06T09:58:13;21.60;99.90
5956;DHT22;3004;48.080;11.600;2022-07-06T10:00:40;21.60;99.90
5956;DHT22;3004;48.080;11.600;2022-07-06T10:03:07;21.70;99.90
5956;DHT22;3004;48.080;11.600;2022-07-06T10:05:36;21.80;99.90
5956;DHT22;3004;48.080;11.600;2022-07-06T10:08:05;21.70;99.90
5956;DHT22;3004;48.080;11.600;2022-07-06T10:10:37;21.80;99.90
5956;DHT22;3004;48.080;11.600;2022-07-06T10:13:10;21.90;99.90
5956;DHT22;3004;48.080;11.600;2022-07-06T10:15:40;21.80;99.90
5956;DHT22;3004;48.080;11.600;2022-07-06T10:18:09;21.70;99.90
5956;DHT22;3004;48.080;11.600;2022-07-06T10:20:38;21.80;99.90
5956;DHT22;3004;48.080;11.600;2022-07-06T10:25:53;22.00;99.90
5956;DHT22;3004;48.080;11.600;2022-07-06T10:28:22;22.00;99.90
5956;DHT22;3004;48.080;11.600;2022-07-06T10:30:50;22.00;99.90
5956;DHT22;3004;48.080;11.600;2022-07-06T10:33:21;22.00;99.90
5956;DHT22;3004;48.080;11.600;2022-07-06T10:35:49;22.30;99.90
5956;DHT22;3004;48.080;11.600;2022-07-06T10:38:17;22.30;99.90
5956;DHT22;3004;48.080;11.600;2022-07-06T10:40:45;22.20;99.90
5956;DHT22;3004;48.080;11.600;2022-07-06T10:43:34;22.40;99.90
5956;DHT22;3004;48.080;11.600;2022-07-06T10:46:07;22.20;99.90
5956;DHT22;3004;48.080;11.600;2022-07-06T10:48:35;22.10;99.90
5956;DHT22;3004;48.080;11.600;2022-07-06T10:51:02;22.30;99.90
5956;DHT22;3004;48.080;11.600;2022-07-06T10:53:35;22.50;99.90
5956;DHT22;3004;48.080;11.600;2022-07-06T10:56:06;22.50;99.90
5956;DHT22;3004;48.080;11.600;2022-07-06T10:58:46;22.70;99.90
5956;DHT22;3004;48.080;11.600;2022-07-06T11:01:13;22.90;99.90
5956;DHT22;3004;48.080;11.600;2022-07-06T11:03:45;22.70;99.90
5956;DHT22;3004;48.080;11.600;2022-07-06T11:06:16;22.60;99.90
5956;DHT22;3004;48.080;11.600;2022-07-06T11:08:51;22.80;99.90
5956;DHT22;3004;48.080;11.600;2022-07-06T11:11:20;22.80;99.90
5956;DHT22;3004;48.080;11.600;2022-07-06T11:13:51;23.30;99.90
5956;DHT22;3004;48.080;11.600;2022-07-06T11:16:23;23.30;99.90
5956;DHT22;3004;48.080;11.600;2022-07-06T11:19:04;23.20;99.90
5956;DHT22;3004;48.080;11.600;2022-07-06T11:21:37;22.90;99.90
5956;DHT22;3004;48.080;11.600;2022-07-06T11:24:06;22.40;99.90
5956;DHT22;3004;48.080;11.600;2022-07-06T11:26:34;22.40;99.90
5956;DHT22;3004;48.080;11.600;2022-07-06T11:29:05;22.40;99.90
5956;DHT22;3004;48.080;11.600;2022-07-06T11:31:34;22.40;99.90
5956;DHT22;3004;48.080;11.600;2022-07-06T11:34:04;22.80;99.90
5956;DHT22;3004;48.080;11.600;2022-07-06T11:36:31;23.00;99.90
5956;DHT22;3004;48.080;11.600;2022-07-06T11:39:02;23.00;99.90
5956;DHT22;3004;48.080;11.600;2022-07-06T11:41:31;23.10;99.90
5956;DHT22;3004;48.080;11.600;2022-07-06T11:43:58;23.00;99.20
5956;DHT22;3004;48.080;11.600;2022-07-06T11:46:28;23.10;99.90
5956;DHT22;3004;48.080;11.600;2022-07-06T11:48:57;23.20;99.90
5956;DHT22;3004;48.080;11.600;2022-07-06T11:51:27;23.10;99.90
5956;DHT22;3004;48.080;11.600;2022-07-06T11:53:56;23.10;99.20
5956;DHT22;3004;48.080;11.600;2022-07-06T11:56:24;22.70;99.90
5956;DHT22;3004;48.080;11.600;2022-07-06T11:58:53;22.20;99.90
5956;DHT22;3004;48.080;11.600;2022-07-06T12:01:21;22.10;99.90
5956;DHT22;3004;48.080;11.600;2022-07-06T12:03:51;22.00;99.90
5956;DHT22;3004;48.080;11.600;2022-07-06T12:06:20;22.40;99.90
5956;DHT22;3004;48.080;11.600;2022-07-06T12:08:49;22.70;99.90
5956;DHT22;3004;48.080;11.600;2022-07-06T12:11:20;23.10;99.90
5956;DHT22;3004;48.080;11.600;2022-07-06T12:13:48;23.30;99.90
5956;DHT22;3004;48.080;11.600;2022-07-06T12:16:16;23.40;99.90
5956;DHT22;3004;48.080;11.600;2022-07-06T12:18:47;23.00;98.90
5956;DHT22;3004;48.080;11.600;2022-07-06T12:21:18;22.70;99.90
5956;DHT22;3004;48.080;11.600;2022-07-06T12:23:49;22.90;99.90
5956;DHT22;3004;48.080;11.600;2022-07-06T12:26:20;23.10;99.90
5956;DHT22;3004;48.080;11.600;2022-07-06T12:29:08;23.30;99.90
5956;DHT22;3004;48.080;11.600;2022-07-06T12:31:39;23.70;99.90
5956;DHT22;3004;48.080;11.600;2022-07-06T12:34:13;23.80;99.90
5956;DHT22;3004;48.080;11.600;2022-07-06T12:36:46;23.80;99.40
5956;DHT22;3004;48.080;11.600;2022-07-06T12:39:15;23.70;98.90
5956;DHT22;3004;48.080;11.600;2022-07-06T12:41:48;23.50;99.40
5956;DHT22;3004;48.080;11.600;2022-07-06T12:44:17;23.70;99.90
5956;DHT22;3004;48.080;11.600;2022-07-06T12:46:45;23.80;99.90
5956;DHT22;3004;48.080;11.600;2022-07-06T12:49:15;23.80;99.70
5956;DHT22;3004;48.080;11.600;2022-07-06T12:51:51;23.80;98.80
5956;DHT22;3004;48.080;11.600;2022-07-06T12:54:18;23.70;98.20
5956;DHT22;3004;48.080;11.600;2022-07-06T12:57:06;23.30;99.90
5956;DHT22;3004;48.080;11.600;2022-07-06T12:59:36;23.00;98.80
5956;DHT22;3004;48.080;11.600;2022-07-06T13:02:04;23.20;99.60
5956;DHT22;3004;48.080;11.600;2022-07-06T13:04:32;23.30;99.30
5956;DHT22;3004;48.080;11.600;2022-07-06T13:07:02;23.40;98.90
5956;DHT22;3004;48.080;11.600;2022-07-06T13:09:30;23.10;99.00
5956;DHT22;3004;48.080;11.600;2022-07-06T13:11:57;22.80;99.30
5956;DHT22;3004;48.080;11.600;2022-07-06T13:14:24;22.60;99.60
5956;DHT22;3004;48.080;11.600;2022-07-06T13:16:51;22.60;99.90
5956;DHT22;3004;48.080;11.600;2022-07-06T13:19:20;22.80;99.80
5956;DHT22;3004;48.080;11.600;2022-07-06T13:21:48;23.00;99.90
5956;DHT22;3004;48.080;11.600;2022-07-06T13:24:17;23.00;99.90
5956;DHT22;3004;48.080;11.600;2022-07-06T13:26:44;23.30;99.90
5956;DHT22;3004;48.080;11.600;2022-07-06T13:29:12;23.30;99.90
5956;DHT22;3004;48.080;11.600;2022-07-06T13:31:40;23.40;99.90
5956;DHT22;3004;48.080;11.600;2022-07-06T13:34:08;23.50;99.90
5956;DHT22;3004;48.080;11.600;2022-07-06T13:36:35;23.70;99.90
5956;DHT22;3004;48.080;11.600;2022-07-06T13:39:03;23.90;99.90
5956;DHT22;3004;48.080;11.600;2022-07-06T13:41:32;24.10;98.50
5956;DHT22;3004;48.080;11.600;2022-07-06T13:44:00;24.00;99.90
5956;DHT22;3004;48.080;11.600;2022-07-06T13:46:27;23.70;98.20
5956;DHT22;3004;48.080;11.600;2022-07-06T13:48:54;23.70;97.70
5956;DHT22;3004;48.080;11.600;2022-07-06T13:51:22;23.80;97.90
5956;DHT22;3004;48.080;11.600;2022-07-06T13:53:49;24.00;98.30
5956;DHT22;3004;48.080;11.600;2022-07-06T13:56:16;24.10;99.00
5956;DHT22;3004;48.080;11.600;2022-07-06T13:58:45;24.40;98.80
5956;DHT22;3004;48.080;11.600;2022-07-06T14:01:12;24.40;99.90
5956;DHT22;3004;48.080;11.600;2022-07-06T14:03:42;24.40;98.00
5956;DHT22;3004;48.080;11.600;2022-07-06T14:06:09;24.10;97.40
5956;DHT22;3004;48.080;11.600;2022-07-06T14:08:37;24.10;96.10
5956;DHT22;3004;48.080;11.600;2022-07-06T14:11:06;24.10;96.50
5956;DHT22;3004;48.080;11.600;2022-07-06T14:13:34;24.20;97.60
5956;DHT22;3004;48.080;11.600;2022-07-06T14:16:03;24.40;97.80
5956;DHT22;3004;48.080;11.600;2022-07-06T14:18:30;24.40;98.20
5956;DHT22;3004;48.080;11.600;2022-07-06T14:20:57;24.30;99.00
5956;DHT22;3004;48.080;11.600;2022-07-06T14:23:25;24.10;98.20
5956;DHT22;3004;48.080;11.600;2022-07-06T14:25:53;24.10;97.70
5956;DHT22;3004;48.080;11.600;2022-07-06T14:28:21;24.30;98.10
5956;DHT22;3004;48.080;11.600;2022-07-06T14:30:50;23.90;97.70
5956;DHT22;3004;48.080;11.600;2022-07-06T14:33:18;23.80;97.10
5956;DHT22;3004;48.080;11.600;2022-07-06T14:35:46;24.00;97.20
5956;DHT22;3004;48.080;11.600;2022-07-06T14:38:14;24.10;98.70
5956;DHT22;3004;48.080;11.600;2022-07-06T14:40:43;23.80;96.20
5956;DHT22;3004;48.080;11.600;2022-07-06T14:43:10;23.80;97.10
5956;DHT22;3004;48.080;11.600;2022-07-06T14:45:37;23.90;96.50
5956;DHT22;3004;48.080;11.600;2022-07-06T14:48:05;24.30;98.00
5956;DHT22;3004;48.080;11.600;2022-07-06T14:50:33;24.40;95.60
5956;DHT22;3004;48.080;11.600;2022-07-06T14:53:01;24.10;95.40
5956;DHT22;3004;48.080;11.600;2022-07-06T14:55:28;23.70;96.00
5956;DHT22;3004;48.080;11.600;2022-07-06T14:57:55;23.40;97.40
5956;DHT22;3004;48.080;11.600;2022-07-06T15:00:22;23.20;99.10
5956;DHT22;3004;48.080;11.600;2022-07-06T15:02:49;23.10;98.00
5956;DHT22;3004;48.080;11.600;2022-07-06T15:05:16;23.10;97.10
5956;DHT22;3004;48.080;11.600;2022-07-06T15:07:45;23.40;97.40
5956;DHT22;3004;48.080;11.600;2022-07-06T15:10:12;23.70;96.60
5956;DHT22;3004;48.080;11.600;2022-07-06T15:12:39;23.50;97.10
5956;DHT22;3004;48.080;11.600;2022-07-06T15:15:06;23.30;97.00
5956;DHT22;3004;48.080;11.600;2022-07-06T15:17:38;23.00;97.30
5956;DHT22;3004;48.080;11.600;2022-07-06T15:20:05;22.80;96.20
5956;DHT22;3004;48.080;11.600;2022-07-06T15:22:35;22.80;97.00
5956;DHT22;3004;48.080;11.600;2022-07-06T15:25:04;22.80;96.20
5956;DHT22;3004;48.080;11.600;2022-07-06T15:27:31;23.00;97.10
5956;DHT22;3004;48.080;11.600;2022-07-06T15:29:58;23.20;95.90
5956;DHT22;3004;48.080;11.600;2022-07-06T15:32:25;23.30;96.90
5956;DHT22;3004;48.080;11.600;2022-07-06T15:34:51;23.40;95.40
5956;DHT22;3004;48.080;11.600;2022-07-06T15:37:19;23.30;96.40
5956;DHT22;3004;48.080;11.600;2022-07-06T15:39:47;23.10;96.50
5956;DHT22;3004;48.080;11.600;2022-07-06T15:42:16;23.00;97.40
5956;DHT22;3004;48.080;11.600;2022-07-06T15:44:43;23.10;98.20
5956;DHT22;3004;48.080;11.600;2022-07-06T15:47:10;23.30;97.60
5956;DHT22;3004;48.080;11.600;2022-07-06T15:49:38;23.60;97.70
5956;DHT22;3004;48.080;11.600;2022-07-06T15:52:05;23.80;96.30
5956;DHT22;3004;48.080;11.600;2022-07-06T15:54:32;23.40;98.60
5956;DHT22;3004;48.080;11.600;2022-07-06T15:56:59;23.30;97.50
5956;DHT22;3004;48.080;11.600;2022-07-06T15:59:29;23.20;97.00
5956;DHT22;3004;48.080;11.600;2022-07-06T16:01:56;23.40;97.30
5956;DHT22;3004;48.080;11.600;2022-07-06T16:04:23;23.30;96.80
5956;DHT22;3004;48.080;11.600;2022-07-06T16:06:52;23.10;96.40